sensor_id;sensor_type;location;lat;lon;timestamp;pressure;altitude;pressure_sealevel;temperature;humidity
67840;BME280;54636;51.684;5.142;2022-12-29T00:01:37;100065.22;;;10.78;100.00
67840;BME280;54636;51.684;5.142;2022-12-29T00:04:03;100067.75;;;10.65;100.00
67840;BME280;54636;51.684;5.142;2022-12-29T00:06:29;100068.72;;;10.68;100.00
67840;BME280;54636;51.684;5.142;2022-12-29T00:08:55;100060.56;;;10.68;100.00
67840;BME280;54636;51.684;5.142;2022-12-29T00:11:25;100048.75;;;10.60;100.00
67840;BME280;54636;51.684;5.142;2022-12-29T00:13:51;100046.25;;;10.67;100.00
67840;BME280;54636;51.684;5.142;2022-12-29T00:16:37;100056.41;;;10.55;100.00
67840;BME280;54636;51.684;5.142;2022-12-29T00:19:04;100036.88;;;10.63;100.00
67840;BME280;54636;51.684;5.142;2022-12-29T00:21:29;100033.69;;;10.59;100.00
67840;BME280;54636;51.684;5.142;2022-12-29T00:24:18;100037.47;;;10.33;100.00
67840;BME280;54636;51.684;5.142;2022-12-29T00:27:09;100044.38;;;10.40;100.00
67840;BME280;54636;51.684;5.142;2022-12-29T00:29:53;100021.94;;;10.34;100.00
67840;BME280;54636;51.684;5.142;2022-12-29T00:32:37;100030.28;;;10.47;100.00
67840;BME280;54636;51.684;5.142;2022-12-29T00:35:35;100028.06;;;10.45;100.00
67840;BME280;54636;51.684;5.142;2022-12-29T00:38:04;100026.09;;;10.40;100.00
67840;BME280;54636;51.684;5.142;2022-12-29T00:40:49;100022.66;;;10.40;100.00
67840;BME280;54636;51.684;5.142;2022-12-29T00:43:33;100014.50;;;10.40;100.00
67840;BME280;54636;51.684;5.142;2022-12-29T00:46:17;100014.03;;;10.30;100.00
67840;BME280;54636;51.684;5.142;2022-12-29T00:48:42;100015.22;;;10.40;100.00
67840;BME280;54636;51.684;5.142;2022-12-29T00:51:28;100016.75;;;10.36;100.00
67840;BME280;54636;51.684;5.142;2022-12-29T00:53:53;100013.78;;;10.39;100.00
67840;BME280;54636;51.684;5.142;2022-12-29T00:56:19;99981.47;;;10.30;100.00
67840;BME280;54636;51.684;5.142;2022-12-29T00:58:44;99979.53;;;10.19;100.00
67840;BME280;54636;51.684;5.142;2022-12-29T01:01:10;99988.13;;;10.29;100.00
67840;BME280;54636;51.684;5.142;2022-12-29T01:03:36;99995.53;;;10.34;100.00
67840;BME280;54636;51.684;5.142;2022-12-29T01:06:08;99983.19;;;10.33;100.00
67840;BME280;54636;51.684;5.142;2022-12-29T01:08:35;99964.22;;;10.16;100.00
67840;BME280;54636;51.684;5.142;2022-12-29T01:11:02;99980.47;;;10.39;100.00
67840;BME280;54636;51.684;5.142;2022-12-29T01:13:28;99980.47;;;10.33;100.00
67840;BME280;54636;51.684;5.142;2022-12-29T01:15:55;99968.91;;;10.16;100.00
67840;BME280;54636;51.684;5.142;2022-12-29T01:18:21;99940.06;;;10.07;100.00
67840;BME280;54636;51.684;5.142;2022-12-29T01:20:46;99967.69;;;10.22;100.00
67840;BME280;54636;51.684;5.142;2022-12-29T01:23:12;99965.94;;;10.31;100.00
67840;BME280;54636;51.684;5.142;2022-12-29T01:25:38;99957.28;;;10.32;100.00
67840;BME280;54636;51.684;5.142;2022-12-29T01:28:03;99931.63;;;10.28;100.00
67840;BME280;54636;51.684;5.142;2022-12-29T01:30:28;99956.19;;;10.52;100.00
67840;BME280;54636;51.684;5.142;2022-12-29T01:32:54;99914.84;;;10.35;100.00
67840;BME280;54636;51.684;5.142;2022-12-29T01:35:19;99962.81;;;10.62;100.00
67840;BME280;54636;51.684;5.142;2022-12-29T01:37:45;99911.78;;;10.49;100.00
67840;BME280;54636;51.684;5.142;2022-12-29T01:40:11;99961.31;;;10.72;100.00
67840;BME280;54636;51.684;5.142;2022-12-29T01:42:36;99939.09;;;10.68;100.00
67840;BME280;54636;51.684;5.142;2022-12-29T01:45:08;99939.81;;;10.74;100.00
67840;BME280;54636;51.684;5.142;2022-12-29T01:47:46;99903.13;;;10.51;100.00
67840;BME280;54636;51.684;5.142;2022-12-29T01:50:34;99933.78;;;10.93;100.00
67840;BME280;54636;51.684;5.142;2022-12-29T01:55:35;99930.88;;;10.85;100.00
67840;BME280;54636;51.684;5.142;2022-12-29T01:58:04;99927.13;;;10.88;100.00
67840;BME280;54636;51.684;5.142;2022-12-29T02:00:30;99955.72;;;11.00;100.00
67840;BME280;54636;51.684;5.142;2022-12-29T02:02:56;99949.03;;;11.01;100.00
67840;BME280;54636;51.684;5.142;2022-12-29T02:05:35;99956.13;;;11.10;100.00
67840;BME280;54636;51.684;5.142;2022-12-29T02:08:03;99953.47;;;11.04;100.00
67840;BME280;54636;51.684;5.142;2022-12-29T02:10:31;99959.34;;;11.08;100.00
67840;BME280;54636;51.684;5.142;2022-12-29T02:12:58;99941.56;;;11.07;100.00
67840;BME280;54636;51.684;5.142;2022-12-29T02:18:51;99943.28;;;11.10;100.00
67840;BME280;54636;51.684;5.142;2022-12-29T02:32:15;99950.41;;;11.13;100.00
67840;BME280;54636;51.684;5.142;2022-12-29T02:34:47;99933.59;;;11.15;100.00
67840;BME280;54636;51.684;5.142;2022-12-29T02:38:17;99951.91;;;11.14;100.00
67840;BME280;54636;51.684;5.142;2022-12-29T02:40:41;99935.91;;;11.05;100.00
67840;BME280;54636;51.684;5.142;2022-12-29T02:45:56;99959.97;;;11.26;100.00
67840;BME280;54636;51.684;5.142;2022-12-29T02:48:28;99933.25;;;11.00;100.00
67840;BME280;54636;51.684;5.142;2022-12-29T02:51:03;99954.81;;;11.22;100.00
67840;BME280;54636;51.684;5.142;2022-12-29T02:53:32;99937.03;;;11.21;100.00
67840;BME280;54636;51.684;5.142;2022-12-29T02:56:17;99949.88;;;11.20;100.00
67840;BME280;54636;51.684;5.142;2022-12-29T02:58:42;99915.00;;;10.95;100.00
67840;BME280;54636;51.684;5.142;2022-12-29T03:01:16;99943.47;;;11.18;100.00
67840;BME280;54636;51.684;5.142;2022-12-29T03:21:29;99918.09;;;10.69;100.00
67840;BME280;54636;51.684;5.142;2022-12-29T03:24:11;99929.06;;;10.52;100.00
67840;BME280;54636;51.684;5.142;2022-12-29T03:26:37;99947.59;;;10.48;100.00
67840;BME280;54636;51.684;5.142;2022-12-29T03:29:03;99939.47;;;10.42;100.00
67840;BME280;54636;51.684;5.142;2022-12-29T03:31:30;99926.47;;;10.24;100.00
67840;BME280;54636;51.684;5.142;2022-12-29T03:33:56;99932.38;;;10.17;100.00
67840;BME280;54636;51.684;5.142;2022-12-29T03:36:44;99955.31;;;10.16;100.00
67840;BME280;54636;51.684;5.142;2022-12-29T03:39:13;99929.72;;;9.95;100.00
67840;BME280;54636;51.684;5.142;2022-12-29T03:41:41;99922.53;;;10.19;100.00
67840;BME280;54636;51.684;5.142;2022-12-29T03:44:10;99946.69;;;10.29;100.00
67840;BME280;54636;51.684;5.142;2022-12-29T03:46:36;99930.41;;;10.23;100.00
67840;BME280;54636;51.684;5.142;2022-12-29T03:49:01;99953.34;;;10.33;100.00
67840;BME280;54636;51.684;5.142;2022-12-29T03:51:27;99934.38;;;10.16;100.00
67840;BME280;54636;51.684;5.142;2022-12-29T03:53:52;99945.94;;;10.34;100.00
67840;BME280;54636;51.684;5.142;2022-12-29T03:56:17;99939.44;;;10.48;100.00
67840;BME280;54636;51.684;5.142;2022-12-29T03:58:43;99909.47;;;10.12;100.00
67840;BME280;54636;51.684;5.142;2022-12-29T04:01:08;99929.66;;;10.28;100.00
67840;BME280;54636;51.684;5.142;2022-12-29T04:03:33;99952.78;;;10.46;100.00
67840;BME280;54636;51.684;5.142;2022-12-29T04:05:59;99934.56;;;10.35;100.00
67840;BME280;54636;51.684;5.142;2022-12-29T04:08:24;99953.28;;;10.44;100.00
67840;BME280;54636;51.684;5.142;2022-12-29T04:10:50;99949.38;;;10.40;100.00
67840;BME280;54636;51.684;5.142;2022-12-29T04:13:15;99945.94;;;10.28;100.00
67840;BME280;54636;51.684;5.142;2022-12-29T04:15:43;99966.09;;;10.44;100.00
67840;BME280;54636;51.684;5.142;2022-12-29T04:18:08;99948.41;;;10.26;100.00
67840;BME280;54636;51.684;5.142;2022-12-29T04:20:33;99978.25;;;10.37;100.00
67840;BME280;54636;51.684;5.142;2022-12-29T04:23:17;99977.75;;;10.33;100.00
67840;BME280;54636;51.684;5.142;2022-12-29T04:25:45;99976.06;;;10.25;100.00
67840;BME280;54636;51.684;5.142;2022-12-29T04:28:12;99981.50;;;10.25;100.00
67840;BME280;54636;51.684;5.142;2022-12-29T04:30:37;99977.53;;;10.26;100.00
67840;BME280;54636;51.684;5.142;2022-12-29T04:33:03;99995.31;;;10.27;100.00
67840;BME280;54636;51.684;5.142;2022-12-29T04:35:28;99981.75;;;10.21;100.00
67840;BME280;54636;51.684;5.142;2022-12-29T04:37:54;99985.47;;;9.96;100.00
67840;BME280;54636;51.684;5.142;2022-12-29T04:40:19;100000.75;;;9.99;100.00
67840;BME280;54636;51.684;5.142;2022-12-29T04:42:44;100008.16;;;9.87;100.00
67840;BME280;54636;51.684;5.142;2022-12-29T04:45:10;100007.44;;;9.70;100.00
67840;BME280;54636;51.684;5.142;2022-12-29T04:47:35;99989.44;;;9.50;100.00
67840;BME280;54636;51.684;5.142;2022-12-29T04:50:01;99989.69;;;9.41;100.00
67840;BME280;54636;51.684;5.142;2022-12-29T04:52:26;99996.06;;;9.32;100.00
67840;BME280;54636;51.684;5.142;2022-12-29T04:54:52;100009.09;;;9.17;100.00
67840;BME280;54636;51.684;5.142;2022-12-29T04:57:17;100007.59;;;9.10;100.00
67840;BME280;54636;51.684;5.142;2022-12-29T04:59:42;99999.00;;;9.06;100.00
67840;BME280;54636;51.684;5.142;2022-12-29T05:02:08;99989.09;;;8.86;100.00
67840;BME280;54636;51.684;5.142;2022-12-29T05:04:33;99989.09;;;8.86;100.00
67840;BME280;54636;51.684;5.142;2022-12-29T05:06:58;99995.22;;;8.76;100.00
67840;BME280;54636;51.684;5.142;2022-12-29T05:09:24;100016.97;;;8.98;100.00
67840;BME280;54636;51.684;5.142;2022-12-29T05:11:49;100012.50;;;8.89;100.00
67840;BME280;54636;51.684;5.142;2022-12-29T05:14:14;100019.66;;;8.93;100.00
67840;BME280;54636;51.684;5.142;2022-12-29T05:16:40;100015.94;;;8.90;100.00
67840;BME280;54636;51.684;5.142;2022-12-29T05:19:05;100010.50;;;8.79;100.00
67840;BME280;54636;51.684;5.142;2022-12-29T05:21:31;100033.00;;;9.07;100.00
67840;BME280;54636;51.684;5.142;2022-12-29T05:23:56;100024.88;;;9.07;100.00
67840;BME280;54636;51.684;5.142;2022-12-29T05:26:21;100055.91;;;9.06;100.00
67840;BME280;54636;51.684;5.142;2022-12-29T05:28:47;100029.28;;;9.05;100.00
67840;BME280;54636;51.684;5.142;2022-12-29T05:31:12;100030.78;;;9.06;100.00
67840;BME280;54636;51.684;5.142;2022-12-29T05:33:37;100015.66;;;8.82;100.00
67840;BME280;54636;51.684;5.142;2022-12-29T05:36:07;100036.38;;;8.91;100.00
67840;BME280;54636;51.684;5.142;2022-12-29T05:38:33;100043.34;;;9.14;100.00
67840;BME280;54636;51.684;5.142;2022-12-29T05:40:58;100049.78;;;9.28;100.00
67840;BME280;54636;51.684;5.142;2022-12-29T05:43:24;100038.41;;;9.13;100.00
67840;BME280;54636;51.684;5.142;2022-12-29T05:45:49;100058.13;;;9.24;100.00
67840;BME280;54636;51.684;5.142;2022-12-29T05:48:15;100068.25;;;9.30;100.00
67840;BME280;54636;51.684;5.142;2022-12-29T05:50:40;100045.34;;;9.25;100.00
67840;BME280;54636;51.684;5.142;2022-12-29T05:53:05;100031.75;;;9.08;100.00
67840;BME280;54636;51.684;5.142;2022-12-29T05:55:31;100050.75;;;9.31;100.00
67840;BME280;54636;51.684;5.142;2022-12-29T05:57:57;100050.50;;;9.23;100.00
67840;BME280;54636;51.684;5.142;2022-12-29T06:00:23;100051.72;;;9.16;100.00
67840;BME280;54636;51.684;5.142;2022-12-29T06:02:48;100056.66;;;9.23;100.00
67840;BME280;54636;51.684;5.142;2022-12-29T06:05:14;100048.25;;;9.16;100.00
67840;BME280;54636;51.684;5.142;2022-12-29T06:07:39;100050.06;;;9.41;100.00
67840;BME280;54636;51.684;5.142;2022-12-29T06:10:05;100025.13;;;9.26;100.00
67840;BME280;54636;51.684;5.142;2022-12-29T06:12:31;100047.06;;;9.34;100.00
67840;BME280;54636;51.684;5.142;2022-12-29T06:14:56;100041.16;;;9.30;100.00
67840;BME280;54636;51.684;5.142;2022-12-29T06:17:22;100017.28;;;9.39;100.00
67840;BME280;54636;51.684;5.142;2022-12-29T06:19:47;100045.66;;;9.61;100.00
67840;BME280;54636;51.684;5.142;2022-12-29T06:22:12;100027.66;;;9.52;100.00
67840;BME280;54636;51.684;5.142;2022-12-29T06:24:38;100051.56;;;9.53;100.00
67840;BME280;54636;51.684;5.142;2022-12-29T06:27:03;100027.16;;;9.48;99.78
67840;BME280;54636;51.684;5.142;2022-12-29T06:29:29;100050.06;;;9.52;100.00
67840;BME280;54636;51.684;5.142;2022-12-29T06:31:54;100046.59;;;9.46;100.00
67840;BME280;54636;51.684;5.142;2022-12-29T06:34:23;100028.84;;;9.34;100.00
67840;BME280;54636;51.684;5.142;2022-12-29T06:36:49;100052.78;;;9.47;99.87
67840;BME280;54636;51.684;5.142;2022-12-29T06:39:14;100060.91;;;9.52;100.00
67840;BME280;54636;51.684;5.142;2022-12-29T06:41:40;100060.41;;;9.48;99.77
67840;BME280;54636;51.684;5.142;2022-12-29T06:44:05;100051.06;;;9.55;99.44
67840;BME280;54636;51.684;5.142;2022-12-29T06:46:30;100056.97;;;9.53;99.76
67840;BME280;54636;51.684;5.142;2022-12-29T06:48:56;100060.94;;;9.58;99.98
67840;BME280;54636;51.684;5.142;2022-12-29T06:51:21;100056.97;;;9.53;99.66
67840;BME280;54636;51.684;5.142;2022-12-29T06:53:47;100031.34;;;9.54;98.13
67840;BME280;54636;51.684;5.142;2022-12-29T06:56:12;100049.81;;;9.50;99.77
67840;BME280;54636;51.684;5.142;2022-12-29T06:58:38;100012.34;;;9.32;98.86
67840;BME280;54636;51.684;5.142;2022-12-29T07:01:03;100078.66;;;9.53;99.86
67840;BME280;54636;51.684;5.142;2022-12-29T07:03:28;100055.75;;;9.66;99.48
67840;BME280;54636;51.684;5.142;2022-12-29T07:05:54;100045.91;;;9.74;98.47
67840;BME280;54636;51.684;5.142;2022-12-29T07:08:19;100057.97;;;9.56;99.49
67840;BME280;54636;51.684;5.142;2022-12-29T07:10:45;100049.59;;;9.60;98.00
67840;BME280;54636;51.684;5.142;2022-12-29T07:13:11;100083.59;;;9.77;98.31
67840;BME280;54636;51.684;5.142;2022-12-29T07:15:37;100098.16;;;9.74;97.55
67840;BME280;54636;51.684;5.142;2022-12-29T07:18:03;100073.25;;;9.59;98.36
67840;BME280;54636;51.684;5.142;2022-12-29T07:20:29;100099.16;;;9.71;98.42
67840;BME280;54636;51.684;5.142;2022-12-29T07:22:55;100101.38;;;9.73;97.40
67840;BME280;54636;51.684;5.142;2022-12-29T07:25:21;100097.91;;;9.61;96.96
67840;BME280;54636;51.684;5.142;2022-12-29T07:27:46;100089.97;;;9.46;97.39
67840;BME280;54636;51.684;5.142;2022-12-29T07:30:12;100063.56;;;9.24;96.01
67840;BME280;54636;51.684;5.142;2022-12-29T07:32:37;100093.66;;;9.43;96.44
67840;BME280;54636;51.684;5.142;2022-12-29T07:35:03;100094.41;;;9.38;96.49
67840;BME280;54636;51.684;5.142;2022-12-29T07:37:28;100101.31;;;9.45;95.27
67840;BME280;54636;51.684;5.142;2022-12-29T07:39:54;100094.63;;;9.35;95.66
67840;BME280;54636;51.684;5.142;2022-12-29T07:42:19;100100.00;;;9.23;96.73
67840;BME280;54636;51.684;5.142;2022-12-29T07:44:45;100099.06;;;9.32;94.78
67840;BME280;54636;51.684;5.142;2022-12-29T07:47:10;100110.59;;;9.21;94.02
67840;BME280;54636;51.684;5.142;2022-12-29T07:49:36;100118.72;;;9.21;94.69
67840;BME280;54636;51.684;5.142;2022-12-29T07:52:01;100119.94;;;9.09;94.47
67840;BME280;54636;51.684;5.142;2022-12-29T07:54:27;100137.97;;;9.29;95.53
67840;BME280;54636;51.684;5.142;2022-12-29T07:56:55;100142.41;;;9.32;95.80
67840;BME280;54636;51.684;5.142;2022-12-29T07:59:26;100150.34;;;9.41;94.56
67840;BME280;54636;51.684;5.142;2022-12-29T08:01:51;100142.97;;;9.47;94.81
67840;BME280;54636;51.684;5.142;2022-12-29T08:04:21;100095.53;;;9.15;94.66
67840;BME280;54636;51.684;5.142;2022-12-29T08:06:52;100107.94;;;9.38;94.46
67840;BME280;54636;51.684;5.142;2022-12-29T08:09:18;100115.59;;;9.45;95.06
67840;BME280;54636;51.684;5.142;2022-12-29T08:11:46;100135.56;;;9.48;95.00
67840;BME280;54636;51.684;5.142;2022-12-29T08:14:12;100079.84;;;9.30;94.45
67840;BME280;54636;51.684;5.142;2022-12-29T08:16:37;100094.63;;;9.35;95.17
67840;BME280;54636;51.684;5.142;2022-12-29T08:19:03;100107.38;;;9.17;96.08
67840;BME280;54636;51.684;5.142;2022-12-29T08:21:30;100081.25;;;9.09;95.85
67840;BME280;54636;51.684;5.142;2022-12-29T08:23:56;100069.13;;;8.93;97.60
67840;BME280;54636;51.684;5.142;2022-12-29T08:26:22;100110.31;;;9.14;97.72
67840;BME280;54636;51.684;5.142;2022-12-29T08:28:48;100103.00;;;9.37;97.34
67840;BME280;54636;51.684;5.142;2022-12-29T08:31:13;100083.25;;;9.19;96.99
67840;BME280;54636;51.684;5.142;2022-12-29T08:33:39;100094.38;;;9.33;96.90
67840;BME280;54636;51.684;5.142;2022-12-29T08:36:06;100087.78;;;9.50;95.24
67840;BME280;54636;51.684;5.142;2022-12-29T08:42:03;100064.34;;;9.42;95.41
67840;BME280;54636;51.684;5.142;2022-12-29T08:44:47;100108.03;;;9.72;94.93
67840;BME280;54636;51.684;5.142;2022-12-29T08:47:24;100067.56;;;9.57;94.09
67840;BME280;54636;51.684;5.142;2022-12-29T08:49:56;100089.03;;;9.66;93.76
67840;BME280;54636;51.684;5.142;2022-12-29T08:52:52;100100.63;;;9.83;93.14
67840;BME280;54636;51.684;5.142;2022-12-29T08:55:17;100097.91;;;9.78;92.87
67840;BME280;54636;51.684;5.142;2022-12-29T08:57:52;100080.88;;;9.61;93.53
67840;BME280;54636;51.684;5.142;2022-12-29T09:00:17;100112.22;;;9.95;92.74
67840;BME280;54636;51.684;5.142;2022-12-29T09:02:43;100105.31;;;9.72;91.66
67840;BME280;54636;51.684;5.142;2022-12-29T09:05:09;100137.09;;;9.82;93.04
67840;BME280;54636;51.684;5.142;2022-12-29T09:07:35;100125.03;;;9.83;92.66
67840;BME280;54636;51.684;5.142;2022-12-29T09:10:00;100101.84;;;9.60;92.43
67840;BME280;54636;51.684;5.142;2022-12-29T09:12:26;100131.44;;;9.75;92.07
67840;BME280;54636;51.684;5.142;2022-12-29T09:14:52;100118.09;;;9.60;92.77
67840;BME280;54636;51.684;5.142;2022-12-29T09:17:17;100113.19;;;9.70;93.85
67840;BME280;54636;51.684;5.142;2022-12-29T09:20:05;100149.44;;;9.83;94.34
67840;BME280;54636;51.684;5.142;2022-12-29T09:22:30;100119.09;;;9.57;95.19
67840;BME280;54636;51.684;5.142;2022-12-29T09:24:56;100159.78;;;9.63;97.57
67840;BME280;54636;51.684;5.142;2022-12-29T09:27:21;100168.13;;;9.53;98.22
67840;BME280;54636;51.684;5.142;2022-12-29T09:29:47;100170.59;;;9.57;98.22
67840;BME280;54636;51.684;5.142;2022-12-29T09:32:12;100176.03;;;9.63;98.65
67840;BME280;54636;51.684;5.142;2022-12-29T09:34:38;100191.06;;;9.58;99.44
67840;BME280;54636;51.684;5.142;2022-12-29T09:37:03;100202.00;;;9.27;100.00
67840;BME280;54636;51.684;5.142;2022-12-29T09:39:31;100176.88;;;9.26;100.00
67840;BME280;54636;51.684;5.142;2022-12-29T09:42:06;100181.69;;;9.00;100.00
67840;BME280;54636;51.684;5.142;2022-12-29T09:44:48;100229.31;;;9.17;100.00
67840;BME280;54636;51.684;5.142;2022-12-29T09:47:19;100198.63;;;8.89;100.00
67840;BME280;54636;51.684;5.142;2022-12-29T09:49:53;100215.63;;;8.89;100.00
67840;BME280;54636;51.684;5.142;2022-12-29T09:52:25;100202.56;;;8.56;100.00
67840;BME280;54636;51.684;5.142;2022-12-29T09:55:09;100241.34;;;8.74;100.00
67840;BME280;54636;51.684;5.142;2022-12-29T09:57:39;100256.91;;;8.79;100.00
67840;BME280;54636;51.684;5.142;2022-12-29T10:00:20;100252.00;;;8.83;100.00
67840;BME280;54636;51.684;5.142;2022-12-29T10:02:54;100233.75;;;8.46;100.00
67840;BME280;54636;51.684;5.142;2022-12-29T10:11:00;100292.41;;;8.86;100.00
67840;BME280;54636;51.684;5.142;2022-12-29T10:16:13;100310.06;;;8.50;100.00
67840;BME280;54636;51.684;5.142;2022-12-29T10:19:07;100307.97;;;8.66;100.00
67840;BME280;54636;51.684;5.142;2022-12-29T10:24:24;100308.41;;;8.84;100.00
67840;BME280;54636;51.684;5.142;2022-12-29T10:26:51;100306.06;;;8.72;100.00
67840;BME280;54636;51.684;5.142;2022-12-29T10:29:23;100319.97;;;8.85;100.00
67840;BME280;54636;51.684;5.142;2022-12-29T10:32:36;100328.00;;;9.05;100.00
67840;BME280;54636;51.684;5.142;2022-12-29T10:35:31;100337.38;;;9.04;100.00
67840;BME280;54636;51.684;5.142;2022-12-29T10:43:29;100324.63;;;8.84;100.00
67840;BME280;54636;51.684;5.142;2022-12-29T10:46:09;100301.41;;;8.72;100.00
67840;BME280;54636;51.684;5.142;2022-12-29T10:48:37;100323.72;;;8.93;100.00
67840;BME280;54636;51.684;5.142;2022-12-29T10:51:04;100308.34;;;8.79;100.00
67840;BME280;54636;51.684;5.142;2022-12-29T10:53:38;100327.19;;;8.94;100.00
67840;BME280;54636;51.684;5.142;2022-12-29T10:58:57;100355.50;;;9.30;100.00
67840;BME280;54636;51.684;5.142;2022-12-29T11:01:31;100321.31;;;9.01;100.00
67840;BME280;54636;51.684;5.142;2022-12-29T11:04:21;100360.72;;;9.33;100.00
67840;BME280;54636;51.684;5.142;2022-12-29T11:06:50;100312.34;;;9.20;100.00
67840;BME280;54636;51.684;5.142;2022-12-29T11:09:28;100332.59;;;9.31;100.00
67840;BME280;54636;51.684;5.142;2022-12-29T11:11:53;100363.88;;;9.63;100.00
67840;BME280;54636;51.684;5.142;2022-12-29T11:14:25;100338.72;;;9.63;100.00
67840;BME280;54636;51.684;5.142;2022-12-29T11:17:03;100366.66;;;9.74;100.00
67840;BME280;54636;51.684;5.142;2022-12-29T11:19:31;100384.94;;;9.85;100.00
67840;BME280;54636;51.684;5.142;2022-12-29T11:22:29;100370.56;;;9.68;100.00
67840;BME280;54636;51.684;5.142;2022-12-29T11:25:05;100346.09;;;9.56;100.00
67840;BME280;54636;51.684;5.142;2022-12-29T11:27:31;100341.25;;;9.35;100.00
67840;BME280;54636;51.684;5.142;2022-12-29T11:29:58;100382.69;;;9.41;100.00
67840;BME280;54636;51.684;5.142;2022-12-29T11:32:25;100363.38;;;9.28;100.00
67840;BME280;54636;51.684;5.142;2022-12-29T11:34:51;100368.41;;;9.40;100.00
67840;BME280;54636;51.684;5.142;2022-12-29T11:37:43;100398.97;;;9.41;100.00
67840;BME280;54636;51.684;5.142;2022-12-29T11:40:18;100399.50;;;9.45;100.00
67840;BME280;54636;51.684;5.142;2022-12-29T11:42:51;100385.91;;;9.39;100.00
67840;BME280;54636;51.684;5.142;2022-12-29T11:45:21;100409.16;;;9.51;100.00
67840;BME280;54636;51.684;5.142;2022-12-29T11:47:53;100403.66;;;9.40;100.00
67840;BME280;54636;51.684;5.142;2022-12-29T11:50:26;100392.38;;;9.47;100.00
67840;BME280;54636;51.684;5.142;2022-12-29T11:52:59;100380.97;;;9.38;100.00
67840;BME280;54636;51.684;5.142;2022-12-29T11:55:28;100420.31;;;9.59;100.00
67840;BME280;54636;51.684;5.142;2022-12-29T11:57:55;100389.56;;;9.36;100.00
67840;BME280;54636;51.684;5.142;2022-12-29T12:00:24;100393.81;;;9.43;100.00
67840;BME280;54636;51.684;5.142;2022-12-29T12:03:01;100437.13;;;9.69;100.00
67840;BME280;54636;51.684;5.142;2022-12-29T12:05:38;100407.19;;;9.52;100.00
67840;BME280;54636;51.684;5.142;2022-12-29T12:08:11;100429.22;;;9.65;100.00
67840;BME280;54636;51.684;5.142;2022-12-29T12:10:46;100404.00;;;9.53;100.00
67840;BME280;54636;51.684;5.142;2022-12-29T12:13:36;100382.00;;;9.46;100.00
67840;BME280;54636;51.684;5.142;2022-12-29T12:26:56;100401.53;;;9.55;100.00
67840;BME280;54636;51.684;5.142;2022-12-29T12:32:12;100447.63;;;9.93;100.00
67840;BME280;54636;51.684;5.142;2022-12-29T12:34:45;100452.13;;;10.01;100.00
67840;BME280;54636;51.684;5.142;2022-12-29T12:40:34;100445.50;;;10.08;100.00
67840;BME280;54636;51.684;5.142;2022-12-29T12:43:18;100442.28;;;10.09;100.00
67840;BME280;54636;51.684;5.142;2022-12-29T12:49:26;100451.16;;;10.04;100.00
67840;BME280;54636;51.684;5.142;2022-12-29T13:00:47;100454.81;;;10.01;100.00
67840;BME280;54636;51.684;5.142;2022-12-29T13:09:05;100458.50;;;9.98;100.00
67840;BME280;54636;51.684;5.142;2022-12-29T13:22:42;100465.88;;;9.55;100.00
67840;BME280;54636;51.684;5.142;2022-12-29T13:33:33;100485.16;;;9.11;100.00
67840;BME280;54636;51.684;5.142;2022-12-29T13:38:46;100471.03;;;8.75;100.00
67840;BME280;54636;51.684;5.142;2022-12-29T13:42:02;100493.16;;;8.94;100.00
67840;BME280;54636;51.684;5.142;2022-12-29T13:44:25;100435.94;;;8.40;100.00
67840;BME280;54636;51.684;5.142;2022-12-29T13:46:52;100456.88;;;8.45;100.00
67840;BME280;54636;51.684;5.142;2022-12-29T13:49:21;100473.75;;;8.55;100.00
67840;BME280;54636;51.684;5.142;2022-12-29T13:52:04;100491.88;;;8.69;100.00
67840;BME280;54636;51.684;5.142;2022-12-29T13:54:55;100450.97;;;8.41;100.00
67840;BME280;54636;51.684;5.142;2022-12-29T14:00:03;100463.94;;;8.57;100.00
67840;BME280;54636;51.684;5.142;2022-12-29T14:05:31;100502.78;;;8.75;100.00
67840;BME280;54636;51.684;5.142;2022-12-29T14:08:03;100442.38;;;8.43;100.00
67840;BME280;54636;51.684;5.142;2022-12-29T14:10:33;100494.44;;;8.78;100.00
67840;BME280;54636;51.684;5.142;2022-12-29T14:13:12;100455.34;;;8.59;100.00
67840;BME280;54636;51.684;5.142;2022-12-29T14:15:39;100472.78;;;8.78;100.00
67840;BME280;54636;51.684;5.142;2022-12-29T14:18:18;100461.69;;;8.76;100.00
67840;BME280;54636;51.684;5.142;2022-12-29T14:20:57;100505.31;;;9.04;100.00
67840;BME280;54636;51.684;5.142;2022-12-29T14:23:37;100457.28;;;8.79;100.00
67840;BME280;54636;51.684;5.142;2022-12-29T14:28:37;100454.91;;;8.66;100.00
67840;BME280;54636;51.684;5.142;2022-12-29T14:36:39;100476.91;;;8.74;100.00
67840;BME280;54636;51.684;5.142;2022-12-29T14:44:47;100512.97;;;9.06;100.00
67840;BME280;54636;51.684;5.142;2022-12-29T14:47:23;100507.03;;;8.81;100.00
67840;BME280;54636;51.684;5.142;2022-12-29T14:49:53;100525.59;;;8.88;100.00
67840;BME280;54636;51.684;5.142;2022-12-29T14:52:24;100498.59;;;8.74;100.00
67840;BME280;54636;51.684;5.142;2022-12-29T14:57:27;100474.84;;;8.43;100.00
67840;BME280;54636;51.684;5.142;2022-12-29T14:59:58;100485.31;;;8.55;100.00
67840;BME280;54636;51.684;5.142;2022-12-29T15:02:31;100482.97;;;8.43;100.00
67840;BME280;54636;51.684;5.142;2022-12-29T15:04:59;100482.69;;;8.41;100.00
67840;BME280;54636;51.684;5.142;2022-12-29T15:07:29;100486.88;;;8.42;100.00
67840;BME280;54636;51.684;5.142;2022-12-29T15:10:08;100507.72;;;8.56;100.00
67840;BME280;54636;51.684;5.142;2022-12-29T15:12:42;100459.63;;;8.10;100.00
67840;BME280;54636;51.684;5.142;2022-12-29T15:15:25;100521.66;;;8.49;100.00
67840;BME280;54636;51.684;5.142;2022-12-29T15:17:51;100514.44;;;8.40;100.00
67840;BME280;54636;51.684;5.142;2022-12-29T15:20:27;100501.19;;;8.27;100.00
67840;BME280;54636;51.684;5.142;2022-12-29T15:23:12;100523.34;;;8.46;100.00
67840;BME280;54636;51.684;5.142;2022-12-29T15:25:55;100500.09;;;8.19;100.00
67840;BME280;54636;51.684;5.142;2022-12-29T15:28:21;100529.84;;;8.34;100.00